sensor_id;sensor_type;location;lat;lon;timestamp;pressure;altitude;pressure_sealevel;temperature;humidity
77077;BME280;66003;52.286;104.306;2023-05-19T00:02:11;96383.34;;;10.95;43.82
77077;BME280;66003;52.286;104.306;2023-05-19T00:04:38;96343.50;;;10.94;43.44
77077;BME280;66003;52.286;104.306;2023-05-19T00:07:05;96373.41;;;11.30;43.12
77077;BME280;66003;52.286;104.306;2023-05-19T00:09:33;96384.31;;;11.62;42.56
77077;BME280;66003;52.286;104.306;2023-05-19T00:11:59;96380.66;;;11.53;42.86
77077;BME280;66003;52.286;104.306;2023-05-19T00:14:26;96358.84;;;11.41;42.55
77077;BME280;66003;52.286;104.306;2023-05-19T00:16:54;96360.56;;;11.27;42.52
77077;BME280;66003;52.286;104.306;2023-05-19T00:19:24;96367.25;;;11.29;43.31
77077;BME280;66003;52.286;104.306;2023-05-19T00:21:50;96343.16;;;11.00;43.18
77077;BME280;66003;52.286;104.306;2023-05-19T00:24:16;96357.88;;;10.98;43.47
77077;BME280;66003;52.286;104.306;2023-05-19T00:26:42;96376.22;;;10.80;44.40
77077;BME280;66003;52.286;104.306;2023-05-19T00:29:09;96356.03;;;10.64;45.38
77077;BME280;66003;52.286;104.306;2023-05-19T00:31:35;96364.28;;;10.68;45.17
77077;BME280;66003;52.286;104.306;2023-05-19T00:34:01;96348.50;;;10.71;45.22
77077;BME280;66003;52.286;104.306;2023-05-19T00:36:28;96299.63;;;10.32;45.21
77077;BME280;66003;52.286;104.306;2023-05-19T00:38:54;96382.38;;;10.76;45.77
77077;BME280;66003;52.286;104.306;2023-05-19T00:41:20;96382.25;;;10.96;45.54
77077;BME280;66003;52.286;104.306;2023-05-19T00:43:48;96345.69;;;10.86;45.59
77077;BME280;66003;52.286;104.306;2023-05-19T00:46:14;96387.34;;;11.27;45.25
77077;BME280;66003;52.286;104.306;2023-05-19T00:48:40;96331.72;;;10.95;44.93
77077;BME280;66003;52.286;104.306;2023-05-19T00:51:09;96376.28;;;11.62;44.17
77077;BME280;66003;52.286;104.306;2023-05-19T00:53:39;96365.56;;;12.10;42.99
77077;BME280;66003;52.286;104.306;2023-05-19T00:56:06;96355.75;;;12.24;41.73
77077;BME280;66003;52.286;104.306;2023-05-19T00:58:32;96340.84;;;11.94;42.03
77077;BME280;66003;52.286;104.306;2023-05-19T01:01:11;96363.06;;;11.94;43.10
77077;BME280;66003;52.286;104.306;2023-05-19T01:03:49;96364.38;;;11.73;42.83
77077;BME280;66003;52.286;104.306;2023-05-19T01:06:25;96350.94;;;11.54;42.89
77077;BME280;66003;52.286;104.306;2023-05-19T01:08:53;96355.41;;;11.35;43.76
77077;BME280;66003;52.286;104.306;2023-05-19T01:11:20;96353.38;;;11.22;44.23
77077;BME280;66003;52.286;104.306;2023-05-19T01:13:46;96350.91;;;11.02;45.24
77077;BME280;66003;52.286;104.306;2023-05-19T01:18:53;96378.31;;;11.17;45.76
77077;BME280;66003;52.286;104.306;2023-05-19T01:23:53;96367.31;;;11.48;45.02
77077;BME280;66003;52.286;104.306;2023-05-19T01:26:40;96333.81;;;11.55;44.45
77077;BME280;66003;52.286;104.306;2023-05-19T01:29:28;96362.28;;;11.94;44.19
77077;BME280;66003;52.286;104.306;2023-05-19T01:31:59;96335.91;;;11.82;43.59
77077;BME280;66003;52.286;104.306;2023-05-19T01:34:26;96320.44;;;11.79;44.43
77077;BME280;66003;52.286;104.306;2023-05-19T01:36:54;96364.34;;;12.02;44.39
77077;BME280;66003;52.286;104.306;2023-05-19T01:39:21;96330.63;;;11.77;43.95
77077;BME280;66003;52.286;104.306;2023-05-19T01:41:49;96335.56;;;11.41;45.28
77077;BME280;66003;52.286;104.306;2023-05-19T01:44:15;96289.31;;;11.12;45.16
77077;BME280;66003;52.286;104.306;2023-05-19T01:46:42;96360.81;;;11.30;45.55
77077;BME280;66003;52.286;104.306;2023-05-19T01:49:09;96355.22;;;11.27;46.11
77077;BME280;66003;52.286;104.306;2023-05-19T01:51:35;96352.84;;;11.49;44.79
77077;BME280;66003;52.286;104.306;2023-05-19T01:54:01;96319.91;;;11.01;46.64
77077;BME280;66003;52.286;104.306;2023-05-19T01:56:49;96328.63;;;11.11;46.31
77077;BME280;66003;52.286;104.306;2023-05-19T01:59:41;96361.75;;;11.44;47.12
77077;BME280;66003;52.286;104.306;2023-05-19T02:02:25;96358.59;;;11.37;46.59
77077;BME280;66003;52.286;104.306;2023-05-19T02:05:12;96310.88;;;10.97;47.08
77077;BME280;66003;52.286;104.306;2023-05-19T02:07:50;96350.47;;;10.90;46.36
77077;BME280;66003;52.286;104.306;2023-05-19T02:10:22;96345.41;;;10.54;48.61
77077;BME280;66003;52.286;104.306;2023-05-19T02:12:53;96366.44;;;10.66;48.22
77077;BME280;66003;52.286;104.306;2023-05-19T02:15:24;96370.97;;;10.65;48.11
77077;BME280;66003;52.286;104.306;2023-05-19T02:17:52;96324.09;;;10.44;47.38
77077;BME280;66003;52.286;104.306;2023-05-19T02:20:40;96322.09;;;10.26;48.35
77077;BME280;66003;52.286;104.306;2023-05-19T02:23:07;96337.78;;;10.37;47.66
77077;BME280;66003;52.286;104.306;2023-05-19T02:25:33;96363.50;;;10.62;48.15
77077;BME280;66003;52.286;104.306;2023-05-19T02:28:00;96372.56;;;11.05;47.76
77077;BME280;66003;52.286;104.306;2023-05-19T02:30:26;96348.13;;;11.12;46.52
77077;BME280;66003;52.286;104.306;2023-05-19T02:32:52;96363.16;;;11.37;46.15
77077;BME280;66003;52.286;104.306;2023-05-19T02:35:21;96354.66;;;11.30;46.56
77077;BME280;66003;52.286;104.306;2023-05-19T02:37:47;96366.59;;;11.42;46.04
77077;BME280;66003;52.286;104.306;2023-05-19T02:40:16;96335.75;;;11.21;46.54
77077;BME280;66003;52.286;104.306;2023-05-19T02:42:43;96361.41;;;11.51;46.49
77077;BME280;66003;52.286;104.306;2023-05-19T02:45:09;96333.03;;;11.79;45.95
77077;BME280;66003;52.286;104.306;2023-05-19T02:47:35;96370.88;;;12.15;45.29
77077;BME280;66003;52.286;104.306;2023-05-19T02:50:04;96365.63;;;12.05;45.44
77077;BME280;66003;52.286;104.306;2023-05-19T02:52:31;96361.88;;;12.06;44.89
77077;BME280;66003;52.286;104.306;2023-05-19T02:54:57;96351.53;;;11.75;45.75
77077;BME280;66003;52.286;104.306;2023-05-19T02:57:24;96373.44;;;12.01;46.48
77077;BME280;66003;52.286;104.306;2023-05-19T02:59:51;96361.34;;;12.04;45.94
77077;BME280;66003;52.286;104.306;2023-05-19T03:02:17;96341.78;;;12.27;44.98
77077;BME280;66003;52.286;104.306;2023-05-19T03:04:44;96329.38;;;12.31;44.91
77077;BME280;66003;52.286;104.306;2023-05-19T03:07:10;96366.75;;;12.60;44.95
77077;BME280;66003;52.286;104.306;2023-05-19T03:09:38;96349.53;;;12.47;44.90
77077;BME280;66003;52.286;104.306;2023-05-19T03:12:05;96371.16;;;12.70;44.99
77077;BME280;66003;52.286;104.306;2023-05-19T03:14:33;96367.47;;;12.47;45.37
77077;BME280;66003;52.286;104.306;2023-05-19T03:17:03;96374.78;;;12.41;46.84
77077;BME280;66003;52.286;104.306;2023-05-19T03:19:32;96344.22;;;12.23;45.91
77077;BME280;66003;52.286;104.306;2023-05-19T03:21:58;96355.78;;;12.19;46.33
77077;BME280;66003;52.286;104.306;2023-05-19T03:24:24;96370.22;;;12.23;46.34
77077;BME280;66003;52.286;104.306;2023-05-19T03:26:50;96352.41;;;12.32;45.96
77077;BME280;66003;52.286;104.306;2023-05-19T03:29:16;96341.22;;;12.06;45.66
77077;BME280;66003;52.286;104.306;2023-05-19T03:31:42;96372.53;;;12.11;46.11
77077;BME280;66003;52.286;104.306;2023-05-19T03:34:09;96368.78;;;11.88;47.25
77077;BME280;66003;52.286;104.306;2023-05-19T03:36:35;96324.75;;;11.75;46.16
77077;BME280;66003;52.286;104.306;2023-05-19T03:39:05;96364.75;;;11.90;46.44
77077;BME280;66003;52.286;104.306;2023-05-19T03:41:31;96309.47;;;11.52;46.35
77077;BME280;66003;52.286;104.306;2023-05-19T03:43:58;96337.47;;;11.59;46.26
77077;BME280;66003;52.286;104.306;2023-05-19T03:46:24;96366.38;;;11.63;47.16
77077;BME280;66003;52.286;104.306;2023-05-19T03:48:50;96369.94;;;11.53;48.10
77077;BME280;66003;52.286;104.306;2023-05-19T03:51:16;96346.41;;;11.26;48.65
77077;BME280;66003;52.286;104.306;2023-05-19T03:53:42;96344.50;;;11.32;47.72
77077;BME280;66003;52.286;104.306;2023-05-19T03:56:10;96378.78;;;11.53;47.28
77077;BME280;66003;52.286;104.306;2023-05-19T03:58:41;96363.44;;;11.59;47.41
77077;BME280;66003;52.286;104.306;2023-05-19T04:01:10;96369.31;;;11.61;46.78
77077;BME280;66003;52.286;104.306;2023-05-19T04:03:36;96355.81;;;11.76;47.04
77077;BME280;66003;52.286;104.306;2023-05-19T04:06:02;96347.72;;;12.24;45.25
77077;BME280;66003;52.286;104.306;2023-05-19T04:08:28;96344.31;;;12.37;44.34
77077;BME280;66003;52.286;104.306;2023-05-19T04:10:58;96382.47;;;12.48;44.18
77077;BME280;66003;52.286;104.306;2023-05-19T04:13:24;96384.22;;;12.57;43.74
77077;BME280;66003;52.286;104.306;2023-05-19T04:15:51;96383.19;;;12.53;44.42
77077;BME280;66003;52.286;104.306;2023-05-19T04:18:17;96369.28;;;12.70;43.66
77077;BME280;66003;52.286;104.306;2023-05-19T04:20:43;96385.88;;;12.72;43.64
77077;BME280;66003;52.286;104.306;2023-05-19T04:23:09;96377.94;;;12.99;41.97
77077;BME280;66003;52.286;104.306;2023-05-19T04:25:36;96374.09;;;12.87;42.17
77077;BME280;66003;52.286;104.306;2023-05-19T04:28:02;96380.34;;;13.20;42.45
77077;BME280;66003;52.286;104.306;2023-05-19T04:30:28;96375.28;;;13.13;41.35
77077;BME280;66003;52.286;104.306;2023-05-19T04:32:54;96374.06;;;13.24;41.51
77077;BME280;66003;52.286;104.306;2023-05-19T04:35:22;96362.84;;;13.03;41.54
77077;BME280;66003;52.286;104.306;2023-05-19T04:37:49;96349.03;;;12.96;41.93
77077;BME280;66003;52.286;104.306;2023-05-19T04:40:18;96338.75;;;12.85;42.28
77077;BME280;66003;52.286;104.306;2023-05-19T04:42:46;96380.94;;;13.12;42.68
77077;BME280;66003;52.286;104.306;2023-05-19T04:45:14;96350.66;;;12.79;43.47
77077;BME280;66003;52.286;104.306;2023-05-19T04:47:40;96357.34;;;12.62;43.71
77077;BME280;66003;52.286;104.306;2023-05-19T04:50:07;96352.72;;;12.49;43.88
77077;BME280;66003;52.286;104.306;2023-05-19T04:52:34;96365.72;;;12.75;43.28
77077;BME280;66003;52.286;104.306;2023-05-19T04:55:01;96315.09;;;12.87;43.20
77077;BME280;66003;52.286;104.306;2023-05-19T04:57:30;96342.84;;;13.15;42.39
77077;BME280;66003;52.286;104.306;2023-05-19T04:59:56;96371.53;;;13.47;42.24
77077;BME280;66003;52.286;104.306;2023-05-19T05:02:27;96375.44;;;13.54;42.29
77077;BME280;66003;52.286;104.306;2023-05-19T05:04:54;96374.72;;;13.62;41.20
77077;BME280;66003;52.286;104.306;2023-05-19T05:07:22;96340.00;;;13.38;41.65
77077;BME280;66003;52.286;104.306;2023-05-19T05:09:48;96380.03;;;13.67;41.04
77077;BME280;66003;52.286;104.306;2023-05-19T05:12:16;96376.22;;;13.55;40.64
77077;BME280;66003;52.286;104.306;2023-05-19T05:14:47;96378.28;;;13.58;40.98
77077;BME280;66003;52.286;104.306;2023-05-19T05:17:13;96341.97;;;13.19;40.71
77077;BME280;66003;52.286;104.306;2023-05-19T05:19:41;96346.81;;;13.17;40.23
77077;BME280;66003;52.286;104.306;2023-05-19T05:22:07;96367.63;;;13.07;40.63
77077;BME280;66003;52.286;104.306;2023-05-19T05:24:34;96360.28;;;12.80;41.68
77077;BME280;66003;52.286;104.306;2023-05-19T05:27:00;96390.81;;;12.65;43.92
77077;BME280;66003;52.286;104.306;2023-05-19T05:29:26;96368.91;;;12.20;44.64
77077;BME280;66003;52.286;104.306;2023-05-19T05:31:52;96372.91;;;12.23;44.65
77077;BME280;66003;52.286;104.306;2023-05-19T05:34:18;96408.75;;;12.27;45.40
77077;BME280;66003;52.286;104.306;2023-05-19T05:36:44;96330.81;;;12.05;45.17
77077;BME280;66003;52.286;104.306;2023-05-19T05:39:14;96378.53;;;12.40;45.63
77077;BME280;66003;52.286;104.306;2023-05-19T05:41:41;96393.34;;;12.56;44.66
77077;BME280;66003;52.286;104.306;2023-05-19T05:44:07;96373.34;;;12.30;44.16
77077;BME280;66003;52.286;104.306;2023-05-19T05:46:33;96400.66;;;12.70;44.04
77077;BME280;66003;52.286;104.306;2023-05-19T05:49:00;96350.06;;;12.82;43.21
77077;BME280;66003;52.286;104.306;2023-05-19T05:51:26;96355.09;;;13.21;42.70
77077;BME280;66003;52.286;104.306;2023-05-19T05:53:53;96396.38;;;13.38;42.89
77077;BME280;66003;52.286;104.306;2023-05-19T05:56:20;96396.59;;;13.42;42.79
77077;BME280;66003;52.286;104.306;2023-05-19T05:58:48;96402.22;;;13.27;42.59
77077;BME280;66003;52.286;104.306;2023-05-19T06:01:14;96414.06;;;13.40;42.28
77077;BME280;66003;52.286;104.306;2023-05-19T06:03:42;96374.72;;;12.65;43.56
77077;BME280;66003;52.286;104.306;2023-05-19T06:06:14;96404.81;;;12.62;44.39
77077;BME280;66003;52.286;104.306;2023-05-19T06:08:40;96321.00;;;11.76;45.45
77077;BME280;66003;52.286;104.306;2023-05-19T06:11:07;96417.66;;;11.70;46.24
77077;BME280;66003;52.286;104.306;2023-05-19T06:13:37;96435.38;;;11.08;47.82
77077;BME280;66003;52.286;104.306;2023-05-19T06:16:06;96438.47;;;10.86;49.96
77077;BME280;66003;52.286;104.306;2023-05-19T06:18:32;96412.41;;;10.68;50.41
77077;BME280;66003;52.286;104.306;2023-05-19T06:20:58;96387.88;;;10.56;50.81
77077;BME280;66003;52.286;104.306;2023-05-19T06:23:25;96423.53;;;10.80;50.19
77077;BME280;66003;52.286;104.306;2023-05-19T06:25:53;96408.22;;;10.52;50.04
77077;BME280;66003;52.286;104.306;2023-05-19T06:28:20;96427.38;;;10.64;50.95
77077;BME280;66003;52.286;104.306;2023-05-19T06:30:46;96439.19;;;10.53;51.03
77077;BME280;66003;52.286;104.306;2023-05-19T06:33:13;96407.75;;;10.39;51.38
77077;BME280;66003;52.286;104.306;2023-05-19T06:35:39;96437.84;;;10.55;50.94
77077;BME280;66003;52.286;104.306;2023-05-19T06:38:05;96400.56;;;10.35;50.49
77077;BME280;66003;52.286;104.306;2023-05-19T06:40:31;96443.00;;;10.41;51.22
77077;BME280;66003;52.286;104.306;2023-05-19T06:42:57;96403.25;;;10.30;50.59
77077;BME280;66003;52.286;104.306;2023-05-19T06:45:23;96409.06;;;10.42;51.57
77077;BME280;66003;52.286;104.306;2023-05-19T06:47:50;96457.22;;;10.81;50.58
77077;BME280;66003;52.286;104.306;2023-05-19T06:50:16;96468.31;;;10.98;50.17
77077;BME280;66003;52.286;104.306;2023-05-19T06:52:42;96434.69;;;10.92;48.66
77077;BME280;66003;52.286;104.306;2023-05-19T06:55:09;96427.09;;;11.04;47.87
77077;BME280;66003;52.286;104.306;2023-05-19T06:57:35;96416.72;;;11.32;46.67
77077;BME280;66003;52.286;104.306;2023-05-19T07:00:01;96447.50;;;11.58;45.80
77077;BME280;66003;52.286;104.306;2023-05-19T07:02:31;96443.88;;;11.73;45.90
77077;BME280;66003;52.286;104.306;2023-05-19T07:04:57;96444.34;;;11.56;46.42
77077;BME280;66003;52.286;104.306;2023-05-19T07:07:23;96476.69;;;11.26;47.08
77077;BME280;66003;52.286;104.306;2023-05-19T07:09:51;96436.13;;;10.74;47.85
77077;BME280;66003;52.286;104.306;2023-05-19T07:12:17;96469.56;;;10.72;48.11
77077;BME280;66003;52.286;104.306;2023-05-19T07:15:13;96468.72;;;10.81;47.66
77077;BME280;66003;52.286;104.306;2023-05-19T07:17:40;96455.34;;;10.32;49.63
77077;BME280;66003;52.286;104.306;2023-05-19T07:20:06;96479.59;;;10.41;50.09
77077;BME280;66003;52.286;104.306;2023-05-19T07:22:35;96436.09;;;10.30;48.65
77077;BME280;66003;52.286;104.306;2023-05-19T07:25:01;96474.34;;;10.26;50.18
77077;BME280;66003;52.286;104.306;2023-05-19T07:27:28;96486.81;;;10.45;50.71
77077;BME280;66003;52.286;104.306;2023-05-19T07:29:55;96476.31;;;10.59;50.03
77077;BME280;66003;52.286;104.306;2023-05-19T07:32:21;96474.69;;;10.63;50.21
77077;BME280;66003;52.286;104.306;2023-05-19T07:34:47;96472.25;;;10.67;49.63
77077;BME280;66003;52.286;104.306;2023-05-19T07:37:14;96456.22;;;10.67;49.26
77077;BME280;66003;52.286;104.306;2023-05-19T07:39:43;96488.22;;;10.82;48.87
77077;BME280;66003;52.286;104.306;2023-05-19T07:42:09;96481.00;;;10.82;49.28
77077;BME280;66003;52.286;104.306;2023-05-19T07:44:36;96488.94;;;10.48;49.03
77077;BME280;66003;52.286;104.306;2023-05-19T07:47:02;96462.28;;;10.33;50.14
77077;BME280;66003;52.286;104.306;2023-05-19T07:49:28;96479.31;;;10.47;50.23
77077;BME280;66003;52.286;104.306;2023-05-19T07:51:54;96470.81;;;10.35;49.26
77077;BME280;66003;52.286;104.306;2023-05-19T07:54:20;96432.47;;;10.01;49.42
77077;BME280;66003;52.286;104.306;2023-05-19T07:56:46;96462.28;;;10.38;49.88
77077;BME280;66003;52.286;104.306;2023-05-19T07:59:14;96484.94;;;10.41;49.60
77077;BME280;66003;52.286;104.306;2023-05-19T08:01:40;96486.91;;;10.25;50.11
77077;BME280;66003;52.286;104.306;2023-05-19T08:04:06;96492.75;;;10.27;49.93
77077;BME280;66003;52.286;104.306;2023-05-19T08:06:33;96498.88;;;10.28;50.57
77077;BME280;66003;52.286;104.306;2023-05-19T08:08:59;96455.38;;;10.22;51.02
77077;BME280;66003;52.286;104.306;2023-05-19T08:11:26;96483.91;;;10.37;49.98
77077;BME280;66003;52.286;104.306;2023-05-19T08:13:52;96482.03;;;10.37;49.38
77077;BME280;66003;52.286;104.306;2023-05-19T08:16:19;96488.97;;;10.38;49.78
77077;BME280;66003;52.286;104.306;2023-05-19T08:18:45;96489.75;;;10.39;50.20
77077;BME280;66003;52.286;104.306;2023-05-19T08:21:11;96485.03;;;10.21;50.04
77077;BME280;66003;52.286;104.306;2023-05-19T08:23:37;96497.53;;;10.35;50.04
77077;BME280;66003;52.286;104.306;2023-05-19T08:26:03;96497.28;;;10.27;50.32
77077;BME280;66003;52.286;104.306;2023-05-19T08:28:30;96517.31;;;10.29;50.47
77077;BME280;66003;52.286;104.306;2023-05-19T08:30:56;96471.69;;;10.10;51.49
77077;BME280;66003;52.286;104.306;2023-05-19T08:33:23;96489.53;;;10.30;50.22
77077;BME280;66003;52.286;104.306;2023-05-19T08:35:49;96510.81;;;10.50;50.10
77077;BME280;66003;52.286;104.306;2023-05-19T08:38:16;96515.63;;;10.54;50.84
77077;BME280;66003;52.286;104.306;2023-05-19T08:40:45;96517.75;;;10.57;50.45
77077;BME280;66003;52.286;104.306;2023-05-19T08:43:13;96532.72;;;10.53;50.86
77077;BME280;66003;52.286;104.306;2023-05-19T08:45:44;96534.53;;;10.62;50.28
77077;BME280;66003;52.286;104.306;2023-05-19T08:48:15;96511.06;;;10.59;50.18
77077;BME280;66003;52.286;104.306;2023-05-19T08:50:49;96500.22;;;10.35;50.25
77077;BME280;66003;52.286;104.306;2023-05-19T08:53:25;96522.91;;;10.38;50.48
77077;BME280;66003;52.286;104.306;2023-05-19T08:56:05;96553.63;;;10.35;51.07
77077;BME280;66003;52.286;104.306;2023-05-19T08:58:36;96528.28;;;10.12;50.81
77077;BME280;66003;52.286;104.306;2023-05-19T09:01:04;96525.38;;;9.94;52.33
77077;BME280;66003;52.286;104.306;2023-05-19T09:03:32;96540.31;;;10.05;52.60
77077;BME280;66003;52.286;104.306;2023-05-19T09:06:05;96546.44;;;10.10;52.52
77077;BME280;66003;52.286;104.306;2023-05-19T09:08:33;96562.47;;;10.26;51.37
77077;BME280;66003;52.286;104.306;2023-05-19T09:11:00;96559.28;;;10.19;52.26
77077;BME280;66003;52.286;104.306;2023-05-19T09:13:26;96557.94;;;10.11;52.50
77077;BME280;66003;52.286;104.306;2023-05-19T09:15:52;96542.47;;;10.03;52.44
77077;BME280;66003;52.286;104.306;2023-05-19T09:18:18;96536.31;;;9.92;53.19
77077;BME280;66003;52.286;104.306;2023-05-19T09:20:45;96545.63;;;10.15;51.80
77077;BME280;66003;52.286;104.306;2023-05-19T09:23:16;96576.88;;;10.35;53.28
77077;BME280;66003;52.286;104.306;2023-05-19T09:25:47;96524.00;;;10.17;52.20
77077;BME280;66003;52.286;104.306;2023-05-19T09:28:13;96586.72;;;10.44;52.09
77077;BME280;66003;52.286;104.306;2023-05-19T09:30:40;96557.91;;;10.31;51.25
77077;BME280;66003;52.286;104.306;2023-05-19T09:33:06;96581.94;;;10.16;51.69
77077;BME280;66003;52.286;104.306;2023-05-19T09:35:34;96554.22;;;10.02;52.58
77077;BME280;66003;52.286;104.306;2023-05-19T09:38:02;96565.16;;;10.21;52.39
77077;BME280;66003;52.286;104.306;2023-05-19T09:40:28;96586.22;;;10.37;52.33
77077;BME280;66003;52.286;104.306;2023-05-19T09:42:54;96573.94;;;10.06;52.72
77077;BME280;66003;52.286;104.306;2023-05-19T09:45:20;96613.75;;;10.07;53.10
77077;BME280;66003;52.286;104.306;2023-05-19T09:47:47;96564.63;;;9.98;51.89
77077;BME280;66003;52.286;104.306;2023-05-19T09:50:13;96624.19;;;10.24;52.37
77077;BME280;66003;52.286;104.306;2023-05-19T09:52:43;96499.56;;;9.44;52.34
77077;BME280;66003;52.286;104.306;2023-05-19T09:55:11;96595.59;;;9.94;53.15
77077;BME280;66003;52.286;104.306;2023-05-19T09:57:39;96610.56;;;10.00;53.07
77077;BME280;66003;52.286;104.306;2023-05-19T10:00:07;96586.53;;;9.85;53.14
77077;BME280;66003;52.286;104.306;2023-05-19T10:02:41;96590.25;;;9.99;52.12
77077;BME280;66003;52.286;104.306;2023-05-19T10:05:15;96631.38;;;10.13;52.92
77077;BME280;66003;52.286;104.306;2023-05-19T10:07:43;96582.00;;;9.86;53.38
77077;BME280;66003;52.286;104.306;2023-05-19T10:10:11;96591.06;;;10.00;52.46
77077;BME280;66003;52.286;104.306;2023-05-19T10:12:39;96592.91;;;9.69;53.04
77077;BME280;66003;52.286;104.306;2023-05-19T10:15:10;96613.75;;;9.67;53.60
77077;BME280;66003;52.286;104.306;2023-05-19T10:17:37;96639.91;;;9.85;53.70
77077;BME280;66003;52.286;104.306;2023-05-19T10:20:13;96629.22;;;9.65;53.11
77077;BME280;66003;52.286;104.306;2023-05-19T10:22:40;96625.16;;;9.37;54.55
77077;BME280;66003;52.286;104.306;2023-05-19T10:25:07;96636.94;;;9.41;55.01
77077;BME280;66003;52.286;104.306;2023-05-19T10:27:36;96618.44;;;9.09;54.75
77077;BME280;66003;52.286;104.306;2023-05-19T10:30:16;96618.19;;;9.21;53.99
77077;BME280;66003;52.286;104.306;2023-05-19T10:32:45;96638.19;;;9.23;55.12
77077;BME280;66003;52.286;104.306;2023-05-19T10:40:29;96618.88;;;8.86;55.60
77077;BME280;66003;52.286;104.306;2023-05-19T10:43:12;96662.66;;;8.95;55.62
77077;BME280;66003;52.286;104.306;2023-05-19T10:45:47;96649.53;;;8.83;55.71
77077;BME280;66003;52.286;104.306;2023-05-19T10:51:02;96609.59;;;8.36;56.38
77077;BME280;66003;52.286;104.306;2023-05-19T10:53:32;96645.66;;;8.54;57.17
77077;BME280;66003;52.286;104.306;2023-05-19T10:56:02;96672.06;;;8.60;56.97
77077;BME280;66003;52.286;104.306;2023-05-19T11:01:13;96700.22;;;8.51;58.18
77077;BME280;66003;52.286;104.306;2023-05-19T11:06:20;96685.28;;;8.45;57.83
77077;BME280;66003;52.286;104.306;2023-05-19T11:08:55;96685.84;;;8.47;57.53
77077;BME280;66003;52.286;104.306;2023-05-19T11:11:21;96659.75;;;8.17;57.93
77077;BME280;66003;52.286;104.306;2023-05-19T11:13:52;96657.41;;;8.21;57.58
77077;BME280;66003;52.286;104.306;2023-05-19T11:16:27;96692.97;;;8.42;57.02
77077;BME280;66003;52.286;104.306;2023-05-19T11:19:00;96648.97;;;7.97;58.40
77077;BME280;66003;52.286;104.306;2023-05-19T11:21:48;96702.19;;;8.29;57.50
77077;BME280;66003;52.286;104.306;2023-05-19T11:24:45;96708.44;;;8.45;57.48
77077;BME280;66003;52.286;104.306;2023-05-19T11:27:26;96716.41;;;8.40;57.79
77077;BME280;66003;52.286;104.306;2023-05-19T11:30:00;96689.81;;;8.13;57.79
77077;BME280;66003;52.286;104.306;2023-05-19T11:32:29;96609.72;;;7.82;57.64
77077;BME280;66003;52.286;104.306;2023-05-19T11:34:56;96717.56;;;8.54;57.64
77077;BME280;66003;52.286;104.306;2023-05-19T11:37:22;96717.63;;;8.59;58.42
77077;BME280;66003;52.286;104.306;2023-05-19T11:39:49;96681.13;;;8.27;57.30
77077;BME280;66003;52.286;104.306;2023-05-19T11:42:15;96696.69;;;8.36;58.09
77077;BME280;66003;52.286;104.306;2023-05-19T11:44:42;96733.53;;;8.49;58.43
77077;BME280;66003;52.286;104.306;2023-05-19T11:47:14;96726.66;;;8.58;58.09
77077;BME280;66003;52.286;104.306;2023-05-19T11:49:47;96713.88;;;8.60;57.11
77077;BME280;66003;52.286;104.306;2023-05-19T11:52:13;96719.06;;;8.40;57.57
77077;BME280;66003;52.286;104.306;2023-05-19T11:54:40;96731.88;;;8.43;57.51
77077;BME280;66003;52.286;104.306;2023-05-19T11:57:09;96704.38;;;8.32;57.47
77077;BME280;66003;52.286;104.306;2023-05-19T11:59:37;96709.34;;;8.23;58.22
77077;BME280;66003;52.286;104.306;2023-05-19T12:02:23;96736.50;;;8.57;57.12
77077;BME280;66003;52.286;104.306;2023-05-19T12:04:50;96736.69;;;8.46;57.55
77077;BME280;66003;52.286;104.306;2023-05-19T12:07:18;96740.00;;;8.63;56.88
77077;BME280;66003;52.286;104.306;2023-05-19T12:09:45;96753.56;;;8.61;57.31
77077;BME280;66003;52.286;104.306;2023-05-19T12:12:22;96751.00;;;8.72;57.25
77077;BME280;66003;52.286;104.306;2023-05-19T12:14:51;96734.41;;;8.64;57.54
77077;BME280;66003;52.286;104.306;2023-05-19T12:17:19;96757.44;;;8.81;56.59
77077;BME280;66003;52.286;104.306;2023-05-19T12:19:47;96757.88;;;8.67;57.09
77077;BME280;66003;52.286;104.306;2023-05-19T12:22:20;96752.41;;;8.84;56.34
77077;BME280;66003;52.286;104.306;2023-05-19T12:24:47;96758.53;;;8.85;55.90
77077;BME280;66003;52.286;104.306;2023-05-19T12:27:17;96763.63;;;8.91;56.35
77077;BME280;66003;52.286;104.306;2023-05-19T12:29:49;96749.91;;;8.67;57.36
77077;BME280;66003;52.286;104.306;2023-05-19T12:32:17;96747.88;;;8.85;56.50
77077;BME280;66003;52.286;104.306;2023-05-19T12:34:44;96750.50;;;8.80;56.43
77077;BME280;66003;52.286;104.306;2023-05-19T12:37:10;96766.78;;;8.83;56.52
77077;BME280;66003;52.286;104.306;2023-05-19T12:39:36;96748.84;;;8.68;56.64
77077;BME280;66003;52.286;104.306;2023-05-19T12:42:10;96763.88;;;8.85;56.86
77077;BME280;66003;52.286;104.306;2023-05-19T12:44:41;96779.06;;;8.84;56.69
77077;BME280;66003;52.286;104.306;2023-05-19T12:47:08;96770.22;;;8.79;56.87
77077;BME280;66003;52.286;104.306;2023-05-19T12:49:34;96772.56;;;8.70;56.80
77077;BME280;66003;52.286;104.306;2023-05-19T12:52:01;96748.41;;;8.50;57.23
77077;BME280;66003;52.286;104.306;2023-05-19T12:54:33;96749.97;;;8.41;57.37
77077;BME280;66003;52.286;104.306;2023-05-19T12:56:59;96679.19;;;8.18;56.91
77077;BME280;66003;52.286;104.306;2023-05-19T12:59:25;96786.44;;;8.72;56.80
77077;BME280;66003;52.286;104.306;2023-05-19T13:01:56;96761.56;;;8.61;56.17
77077;BME280;66003;52.286;104.306;2023-05-19T13:04:27;96776.31;;;8.74;56.86
77077;BME280;66003;52.286;104.306;2023-05-19T13:06:53;96769.03;;;8.59;57.03
77077;BME280;66003;52.286;104.306;2023-05-19T13:09:20;96802.50;;;8.82;57.15